sensor_id;sensor_type;location;lat;lon;timestamp;P1;durP1;ratioP1;P2;durP2;ratioP2
72939;SDS011;61094;51.154;13.570;2022-07-05T00:01:02;3.25;;;1.50;;
72939;SDS011;61094;51.154;13.570;2022-07-05T00:03:29;3.35;;;1.38;;
72939;SDS011;61094;51.154;13.570;2022-07-05T00:05:55;4.50;;;1.77;;
72939;SDS011;61094;51.154;13.570;2022-07-05T00:08:22;4.30;;;1.63;;
72939;SDS011;61094;51.154;13.570;2022-07-05T00:10:49;4.47;;;1.63;;
72939;SDS011;61094;51.154;13.570;2022-07-05T00:13:15;3.97;;;1.58;;
72939;SDS011;61094;51.154;13.570;2022-07-05T00:15:42;5.10;;;1.67;;
72939;SDS011;61094;51.154;13.570;2022-07-05T00:18:10;3.55;;;1.40;;
72939;SDS011;61094;51.154;13.570;2022-07-05T00:20:37;4.88;;;1.40;;
72939;SDS011;61094;51.154;13.570;2022-07-05T00:23:03;4.50;;;1.58;;
72939;SDS011;61094;51.154;13.570;2022-07-05T00:25:30;3.75;;;1.50;;
72939;SDS011;61094;51.154;13.570;2022-07-05T00:27:57;2.83;;;1.33;;
72939;SDS011;61094;51.154;13.570;2022-07-05T00:30:23;2.95;;;1.38;;
72939;SDS011;61094;51.154;13.570;2022-07-05T00:32:50;3.78;;;1.60;;
72939;SDS011;61094;51.154;13.570;2022-07-05T00:35:18;4.10;;;1.20;;
72939;SDS011;61094;51.154;13.570;2022-07-05T00:37:44;3.08;;;1.50;;
72939;SDS011;61094;51.154;13.570;2022-07-05T00:40:11;4.65;;;1.40;;
72939;SDS011;61094;51.154;13.570;2022-07-05T00:42:38;4.18;;;1.50;;
72939;SDS011;61094;51.154;13.570;2022-07-05T00:45:05;64.05;;;26.23;;
72939;SDS011;61094;51.154;13.570;2022-07-05T00:47:32;47.70;;;23.00;;
72939;SDS011;61094;51.154;13.570;2022-07-05T00:49:59;9.43;;;3.95;;
72939;SDS011;61094;51.154;13.570;2022-07-05T00:52:27;3.72;;;1.80;;
72939;SDS011;61094;51.154;13.570;2022-07-05T00:54:54;4.63;;;1.58;;
72939;SDS011;61094;51.154;13.570;2022-07-05T00:57:21;4.05;;;1.67;;
72939;SDS011;61094;51.154;13.570;2022-07-05T00:59:48;3.45;;;1.60;;
72939;SDS011;61094;51.154;13.570;2022-07-05T01:02:15;7.57;;;1.60;;
72939;SDS011;61094;51.154;13.570;2022-07-05T01:04:44;4.35;;;1.58;;
72939;SDS011;61094;51.154;13.570;2022-07-05T01:07:12;4.25;;;1.40;;
72939;SDS011;61094;51.154;13.570;2022-07-05T01:09:40;6.45;;;1.55;;
72939;SDS011;61094;51.154;13.570;2022-07-05T01:12:08;4.78;;;2.05;;
72939;SDS011;61094;51.154;13.570;2022-07-05T01:14:35;3.58;;;1.60;;
72939;SDS011;61094;51.154;13.570;2022-07-05T01:17:02;5.93;;;2.03;;
72939;SDS011;61094;51.154;13.570;2022-07-05T01:19:29;4.28;;;1.50;;
72939;SDS011;61094;51.154;13.570;2022-07-05T01:21:55;3.80;;;1.58;;
72939;SDS011;61094;51.154;13.570;2022-07-05T01:24:30;4.53;;;1.70;;
72939;SDS011;61094;51.154;13.570;2022-07-05T01:26:57;3.78;;;1.40;;
72939;SDS011;61094;51.154;13.570;2022-07-05T01:29:23;4.78;;;1.70;;
72939;SDS011;61094;51.154;13.570;2022-07-05T01:31:50;4.75;;;1.70;;
72939;SDS011;61094;51.154;13.570;2022-07-05T01:34:17;3.67;;;1.50;;
72939;SDS011;61094;51.154;13.570;2022-07-05T01:36:44;3.08;;;1.40;;
72939;SDS011;61094;51.154;13.570;2022-07-05T01:39:10;3.72;;;1.52;;
72939;SDS011;61094;51.154;13.570;2022-07-05T01:41:39;3.22;;;1.33;;
72939;SDS011;61094;51.154;13.570;2022-07-05T01:44:05;3.88;;;1.50;;
72939;SDS011;61094;51.154;13.570;2022-07-05T01:46:33;3.70;;;1.60;;
72939;SDS011;61094;51.154;13.570;2022-07-05T01:49:03;4.05;;;1.80;;
72939;SDS011;61094;51.154;13.570;2022-07-05T01:51:43;3.65;;;1.40;;
72939;SDS011;61094;51.154;13.570;2022-07-05T01:54:14;3.78;;;1.80;;
72939;SDS011;61094;51.154;13.570;2022-07-05T01:56:42;5.93;;;1.88;;
72939;SDS011;61094;51.154;13.570;2022-07-05T01:59:08;5.80;;;2.10;;
72939;SDS011;61094;51.154;13.570;2022-07-05T02:01:35;6.53;;;1.63;;
72939;SDS011;61094;51.154;13.570;2022-07-05T02:04:04;4.50;;;1.67;;
72939;SDS011;61094;51.154;13.570;2022-07-05T02:06:35;5.75;;;1.67;;
72939;SDS011;61094;51.154;13.570;2022-07-05T02:09:03;3.38;;;1.50;;
72939;SDS011;61094;51.154;13.570;2022-07-05T02:11:31;5.68;;;1.88;;
72939;SDS011;61094;51.154;13.570;2022-07-05T02:13:59;3.17;;;1.52;;
72939;SDS011;61094;51.154;13.570;2022-07-05T02:16:26;4.03;;;1.50;;
72939;SDS011;61094;51.154;13.570;2022-07-05T02:18:53;3.97;;;1.70;;
72939;SDS011;61094;51.154;13.570;2022-07-05T02:21:20;5.45;;;1.60;;
72939;SDS011;61094;51.154;13.570;2022-07-05T02:23:47;4.13;;;1.80;;
72939;SDS011;61094;51.154;13.570;2022-07-05T02:26:14;6.18;;;1.80;;
72939;SDS011;61094;51.154;13.570;2022-07-05T02:28:40;5.15;;;1.90;;
72939;SDS011;61094;51.154;13.570;2022-07-05T02:31:08;8.45;;;2.25;;
72939;SDS011;61094;51.154;13.570;2022-07-05T02:33:35;3.83;;;1.52;;
72939;SDS011;61094;51.154;13.570;2022-07-05T02:36:05;42.03;;;19.42;;
72939;SDS011;61094;51.154;13.570;2022-07-05T02:38:33;48.85;;;24.98;;
72939;SDS011;61094;51.154;13.570;2022-07-05T02:40:59;26.83;;;13.43;;
72939;SDS011;61094;51.154;13.570;2022-07-05T02:43:26;26.33;;;14.52;;
72939;SDS011;61094;51.154;13.570;2022-07-05T02:45:52;52.22;;;24.38;;
72939;SDS011;61094;51.154;13.570;2022-07-05T02:48:20;13.02;;;5.25;;
72939;SDS011;61094;51.154;13.570;2022-07-05T02:50:47;5.93;;;2.10;;
72939;SDS011;61094;51.154;13.570;2022-07-05T02:53:13;6.35;;;1.73;;
72939;SDS011;61094;51.154;13.570;2022-07-05T02:55:40;5.22;;;2.08;;
72939;SDS011;61094;51.154;13.570;2022-07-05T02:58:07;4.45;;;1.92;;
72939;SDS011;61094;51.154;13.570;2022-07-05T03:00:33;6.93;;;1.75;;
72939;SDS011;61094;51.154;13.570;2022-07-05T03:03:00;5.85;;;1.90;;
72939;SDS011;61094;51.154;13.570;2022-07-05T03:05:28;5.25;;;1.85;;
72939;SDS011;61094;51.154;13.570;2022-07-05T03:07:55;5.15;;;1.67;;
72939;SDS011;61094;51.154;13.570;2022-07-05T03:10:21;5.55;;;1.75;;
72939;SDS011;61094;51.154;13.570;2022-07-05T03:12:48;3.75;;;1.63;;
72939;SDS011;61094;51.154;13.570;2022-07-05T03:15:14;6.00;;;2.00;;
72939;SDS011;61094;51.154;13.570;2022-07-05T03:17:41;3.55;;;1.70;;
72939;SDS011;61094;51.154;13.570;2022-07-05T03:20:08;5.18;;;2.03;;
72939;SDS011;61094;51.154;13.570;2022-07-05T03:22:37;5.68;;;1.73;;
72939;SDS011;61094;51.154;13.570;2022-07-05T03:25:04;5.50;;;2.20;;
72939;SDS011;61094;51.154;13.570;2022-07-05T03:27:31;4.45;;;1.77;;
72939;SDS011;61094;51.154;13.570;2022-07-05T03:29:58;4.93;;;2.10;;
72939;SDS011;61094;51.154;13.570;2022-07-05T03:32:24;3.75;;;1.77;;
72939;SDS011;61094;51.154;13.570;2022-07-05T03:34:51;5.68;;;2.10;;
72939;SDS011;61094;51.154;13.570;2022-07-05T03:37:17;4.45;;;1.98;;
72939;SDS011;61094;51.154;13.570;2022-07-05T03:39:45;4.30;;;1.80;;
72939;SDS011;61094;51.154;13.570;2022-07-05T03:42:12;5.07;;;1.77;;
72939;SDS011;61094;51.154;13.570;2022-07-05T03:44:39;5.30;;;2.10;;
72939;SDS011;61094;51.154;13.570;2022-07-05T03:47:05;4.38;;;2.08;;
72939;SDS011;61094;51.154;13.570;2022-07-05T03:49:32;4.45;;;2.08;;
72939;SDS011;61094;51.154;13.570;2022-07-05T03:51:58;7.60;;;2.50;;
72939;SDS011;61094;51.154;13.570;2022-07-05T03:54:25;5.95;;;2.25;;
72939;SDS011;61094;51.154;13.570;2022-07-05T03:56:53;5.63;;;2.17;;
72939;SDS011;61094;51.154;13.570;2022-07-05T03:59:19;5.55;;;1.70;;
72939;SDS011;61094;51.154;13.570;2022-07-05T04:01:46;4.50;;;1.83;;
72939;SDS011;61094;51.154;13.570;2022-07-05T04:04:13;4.70;;;1.70;;
72939;SDS011;61094;51.154;13.570;2022-07-05T04:06:39;4.72;;;1.90;;
72939;SDS011;61094;51.154;13.570;2022-07-05T04:09:06;5.25;;;1.88;;
72939;SDS011;61094;51.154;13.570;2022-07-05T04:11:33;5.72;;;1.77;;
72939;SDS011;61094;51.154;13.570;2022-07-05T04:14:00;3.70;;;1.77;;
72939;SDS011;61094;51.154;13.570;2022-07-05T04:16:27;5.20;;;2.00;;
72939;SDS011;61094;51.154;13.570;2022-07-05T04:18:54;6.15;;;2.20;;
72939;SDS011;61094;51.154;13.570;2022-07-05T04:21:20;7.05;;;2.15;;
72939;SDS011;61094;51.154;13.570;2022-07-05T04:23:47;6.30;;;2.10;;
72939;SDS011;61094;51.154;13.570;2022-07-05T04:26:13;4.72;;;2.10;;
72939;SDS011;61094;51.154;13.570;2022-07-05T04:28:40;6.32;;;2.33;;
72939;SDS011;61094;51.154;13.570;2022-07-05T04:31:08;4.57;;;2.00;;
72939;SDS011;61094;51.154;13.570;2022-07-05T04:33:35;6.05;;;1.80;;
72939;SDS011;61094;51.154;13.570;2022-07-05T04:36:02;4.88;;;1.77;;
72939;SDS011;61094;51.154;13.570;2022-07-05T04:38:29;6.10;;;2.00;;
72939;SDS011;61094;51.154;13.570;2022-07-05T04:40:56;6.68;;;2.35;;
72939;SDS011;61094;51.154;13.570;2022-07-05T04:43:23;5.25;;;1.88;;
72939;SDS011;61094;51.154;13.570;2022-07-05T04:45:50;5.50;;;2.00;;
72939;SDS011;61094;51.154;13.570;2022-07-05T04:48:18;5.82;;;1.95;;
72939;SDS011;61094;51.154;13.570;2022-07-05T04:50:44;4.65;;;2.15;;
72939;SDS011;61094;51.154;13.570;2022-07-05T04:53:11;7.22;;;2.50;;
72939;SDS011;61094;51.154;13.570;2022-07-05T04:55:38;5.05;;;2.05;;
72939;SDS011;61094;51.154;13.570;2022-07-05T04:58:04;5.22;;;2.20;;
72939;SDS011;61094;51.154;13.570;2022-07-05T05:00:31;7.25;;;2.40;;
72939;SDS011;61094;51.154;13.570;2022-07-05T05:02:58;8.38;;;2.40;;
72939;SDS011;61094;51.154;13.570;2022-07-05T05:05:26;5.65;;;2.70;;
72939;SDS011;61094;51.154;13.570;2022-07-05T05:07:52;8.30;;;2.50;;
72939;SDS011;61094;51.154;13.570;2022-07-05T05:10:19;6.40;;;2.33;;
72939;SDS011;61094;51.154;13.570;2022-07-05T05:12:46;7.07;;;2.17;;
72939;SDS011;61094;51.154;13.570;2022-07-05T05:15:12;5.68;;;1.67;;
72939;SDS011;61094;51.154;13.570;2022-07-05T05:17:39;4.35;;;1.77;;
72939;SDS011;61094;51.154;13.570;2022-07-05T05:20:09;4.68;;;1.95;;
72939;SDS011;61094;51.154;13.570;2022-07-05T05:22:38;5.57;;;1.45;;
72939;SDS011;61094;51.154;13.570;2022-07-05T05:25:06;4.60;;;2.20;;
72939;SDS011;61094;51.154;13.570;2022-07-05T05:27:33;6.15;;;1.80;;
72939;SDS011;61094;51.154;13.570;2022-07-05T05:30:00;4.50;;;1.70;;
72939;SDS011;61094;51.154;13.570;2022-07-05T05:32:27;8.98;;;2.08;;
72939;SDS011;61094;51.154;13.570;2022-07-05T05:34:54;4.78;;;2.00;;
72939;SDS011;61094;51.154;13.570;2022-07-05T05:37:20;5.38;;;2.10;;
72939;SDS011;61094;51.154;13.570;2022-07-05T05:39:48;5.13;;;1.70;;
72939;SDS011;61094;51.154;13.570;2022-07-05T05:42:15;6.18;;;2.30;;
72939;SDS011;61094;51.154;13.570;2022-07-05T05:44:42;5.28;;;2.08;;
72939;SDS011;61094;51.154;13.570;2022-07-05T05:47:08;3.53;;;1.70;;
72939;SDS011;61094;51.154;13.570;2022-07-05T05:49:35;5.63;;;1.70;;
72939;SDS011;61094;51.154;13.570;2022-07-05T05:52:02;5.75;;;2.15;;
72939;SDS011;61094;51.154;13.570;2022-07-05T05:54:29;7.35;;;1.85;;
72939;SDS011;61094;51.154;13.570;2022-07-05T05:56:56;4.35;;;1.98;;
72939;SDS011;61094;51.154;13.570;2022-07-05T05:59:23;7.25;;;2.10;;
72939;SDS011;61094;51.154;13.570;2022-07-05T06:01:50;5.03;;;1.65;;
72939;SDS011;61094;51.154;13.570;2022-07-05T06:04:16;3.75;;;1.60;;
72939;SDS011;61094;51.154;13.570;2022-07-05T06:06:43;5.10;;;1.73;;
72939;SDS011;61094;51.154;13.570;2022-07-05T06:09:10;6.18;;;1.83;;
72939;SDS011;61094;51.154;13.570;2022-07-05T06:11:36;4.45;;;1.85;;
72939;SDS011;61094;51.154;13.570;2022-07-05T06:14:04;6.68;;;2.72;;
72939;SDS011;61094;51.154;13.570;2022-07-05T06:16:31;8.57;;;1.70;;
72939;SDS011;61094;51.154;13.570;2022-07-05T06:18:57;5.50;;;1.85;;
72939;SDS011;61094;51.154;13.570;2022-07-05T06:21:24;4.32;;;1.52;;
72939;SDS011;61094;51.154;13.570;2022-07-05T06:23:51;4.13;;;1.48;;
72939;SDS011;61094;51.154;13.570;2022-07-05T06:26:17;3.70;;;1.40;;
72939;SDS011;61094;51.154;13.570;2022-07-05T06:28:44;3.83;;;1.50;;
72939;SDS011;61094;51.154;13.570;2022-07-05T06:31:12;7.38;;;2.22;;
72939;SDS011;61094;51.154;13.570;2022-07-05T06:33:38;8.68;;;3.75;;
72939;SDS011;61094;51.154;13.570;2022-07-05T06:36:05;5.35;;;1.90;;
72939;SDS011;61094;51.154;13.570;2022-07-05T06:38:32;4.63;;;1.60;;
72939;SDS011;61094;51.154;13.570;2022-07-05T06:40:59;2.85;;;1.25;;
72939;SDS011;61094;51.154;13.570;2022-07-05T06:43:25;3.22;;;1.20;;
72939;SDS011;61094;51.154;13.570;2022-07-05T06:45:52;4.70;;;1.27;;
72939;SDS011;61094;51.154;13.570;2022-07-05T06:48:20;3.55;;;1.15;;
72939;SDS011;61094;51.154;13.570;2022-07-05T06:50:47;6.80;;;1.40;;
72939;SDS011;61094;51.154;13.570;2022-07-05T06:53:13;5.03;;;1.30;;
72939;SDS011;61094;51.154;13.570;2022-07-05T06:55:40;6.00;;;1.50;;
72939;SDS011;61094;51.154;13.570;2022-07-05T06:58:09;4.50;;;1.17;;
72939;SDS011;61094;51.154;13.570;2022-07-05T07:00:37;3.15;;;1.17;;
72939;SDS011;61094;51.154;13.570;2022-07-05T07:03:04;4.15;;;1.20;;
72939;SDS011;61094;51.154;13.570;2022-07-05T07:05:32;3.78;;;1.13;;
72939;SDS011;61094;51.154;13.570;2022-07-05T07:07:59;3.60;;;1.13;;
72939;SDS011;61094;51.154;13.570;2022-07-05T07:10:43;3.13;;;1.13;;
72939;SDS011;61094;51.154;13.570;2022-07-05T07:13:10;3.45;;;1.60;;
72939;SDS011;61094;51.154;13.570;2022-07-05T07:15:37;5.95;;;1.58;;
72939;SDS011;61094;51.154;13.570;2022-07-05T07:18:05;2.85;;;1.27;;
72939;SDS011;61094;51.154;13.570;2022-07-05T07:20:33;2.15;;;0.90;;
72939;SDS011;61094;51.154;13.570;2022-07-05T07:23:00;3.15;;;1.00;;
72939;SDS011;61094;51.154;13.570;2022-07-05T07:25:27;2.60;;;1.10;;
72939;SDS011;61094;51.154;13.570;2022-07-05T07:27:54;5.10;;;1.00;;
72939;SDS011;61094;51.154;13.570;2022-07-05T07:30:22;2.58;;;0.98;;
72939;SDS011;61094;51.154;13.570;2022-07-05T07:32:49;2.70;;;1.05;;
72939;SDS011;61094;51.154;13.570;2022-07-05T07:35:16;3.55;;;1.00;;
72939;SDS011;61094;51.154;13.570;2022-07-05T07:37:44;2.97;;;1.02;;
72939;SDS011;61094;51.154;13.570;2022-07-05T07:40:11;2.33;;;1.08;;
72939;SDS011;61094;51.154;13.570;2022-07-05T07:42:38;3.20;;;1.15;;
72939;SDS011;61094;51.154;13.570;2022-07-05T07:45:05;2.45;;;0.85;;
72939;SDS011;61094;51.154;13.570;2022-07-05T07:47:32;2.15;;;0.82;;
72939;SDS011;61094;51.154;13.570;2022-07-05T07:50:00;4.97;;;1.08;;
72939;SDS011;61094;51.154;13.570;2022-07-05T07:52:27;2.63;;;1.13;;
72939;SDS011;61094;51.154;13.570;2022-07-05T07:54:56;3.20;;;1.08;;
72939;SDS011;61094;51.154;13.570;2022-07-05T07:57:23;3.38;;;1.13;;
72939;SDS011;61094;51.154;13.570;2022-07-05T07:59:50;5.32;;;1.33;;
72939;SDS011;61094;51.154;13.570;2022-07-05T08:02:16;3.10;;;1.05;;
72939;SDS011;61094;51.154;13.570;2022-07-05T08:04:46;7.32;;;2.25;;
72939;SDS011;61094;51.154;13.570;2022-07-05T08:07:12;5.85;;;1.50;;
72939;SDS011;61094;51.154;13.570;2022-07-05T08:09:39;3.78;;;1.25;;
72939;SDS011;61094;51.154;13.570;2022-07-05T08:12:08;3.03;;;1.10;;
72939;SDS011;61094;51.154;13.570;2022-07-05T08:14:34;2.20;;;0.90;;
72939;SDS011;61094;51.154;13.570;2022-07-05T08:17:01;2.80;;;0.80;;
72939;SDS011;61094;51.154;13.570;2022-07-05T08:19:28;6.55;;;0.95;;
72939;SDS011;61094;51.154;13.570;2022-07-05T08:22:12;3.58;;;0.88;;
72939;SDS011;61094;51.154;13.570;2022-07-05T08:24:39;5.43;;;0.85;;
72939;SDS011;61094;51.154;13.570;2022-07-05T08:27:05;3.00;;;0.82;;
72939;SDS011;61094;51.154;13.570;2022-07-05T08:29:33;2.78;;;1.08;;
72939;SDS011;61094;51.154;13.570;2022-07-05T08:32:01;3.17;;;0.88;;
72939;SDS011;61094;51.154;13.570;2022-07-05T08:34:28;2.95;;;1.00;;
72939;SDS011;61094;51.154;13.570;2022-07-05T08:36:54;3.95;;;0.80;;
72939;SDS011;61094;51.154;13.570;2022-07-05T08:39:21;1.63;;;0.70;;
72939;SDS011;61094;51.154;13.570;2022-07-05T08:41:48;2.85;;;0.80;;
72939;SDS011;61094;51.154;13.570;2022-07-05T08:44:17;2.25;;;0.82;;
72939;SDS011;61094;51.154;13.570;2022-07-05T08:46:45;6.28;;;1.08;;
72939;SDS011;61094;51.154;13.570;2022-07-05T08:49:13;4.20;;;1.00;;
72939;SDS011;61094;51.154;13.570;2022-07-05T08:51:41;1.15;;;0.60;;
72939;SDS011;61094;51.154;13.570;2022-07-05T08:54:08;3.75;;;1.25;;
72939;SDS011;61094;51.154;13.570;2022-07-05T08:56:36;3.95;;;1.10;;
72939;SDS011;61094;51.154;13.570;2022-07-05T08:59:04;3.58;;;0.73;;
72939;SDS011;61094;51.154;13.570;2022-07-05T09:01:32;2.00;;;0.60;;
72939;SDS011;61094;51.154;13.570;2022-07-05T09:04:00;4.53;;;1.73;;
72939;SDS011;61094;51.154;13.570;2022-07-05T09:06:30;2.40;;;0.93;;
72939;SDS011;61094;51.154;13.570;2022-07-05T09:11:28;2.42;;;0.70;;
72939;SDS011;61094;51.154;13.570;2022-07-05T09:13:57;4.05;;;1.02;;
72939;SDS011;61094;51.154;13.570;2022-07-05T09:16:23;2.55;;;0.75;;
72939;SDS011;61094;51.154;13.570;2022-07-05T09:18:52;1.42;;;0.63;;
72939;SDS011;61094;51.154;13.570;2022-07-05T09:21:21;3.47;;;1.20;;
72939;SDS011;61094;51.154;13.570;2022-07-05T09:23:53;2.55;;;0.90;;
72939;SDS011;61094;51.154;13.570;2022-07-05T09:26:21;1.77;;;0.80;;
72939;SDS011;61094;51.154;13.570;2022-07-05T09:28:57;2.13;;;0.68;;
72939;SDS011;61094;51.154;13.570;2022-07-05T09:31:28;3.42;;;0.80;;
72939;SDS011;61094;51.154;13.570;2022-07-05T09:34:06;1.42;;;0.50;;
72939;SDS011;61094;51.154;13.570;2022-07-05T09:36:49;2.92;;;0.95;;
72939;SDS011;61094;51.154;13.570;2022-07-05T09:39:17;4.40;;;1.38;;
72939;SDS011;61094;51.154;13.570;2022-07-05T09:41:44;1.77;;;0.70;;
72939;SDS011;61094;51.154;13.570;2022-07-05T09:44:10;4.38;;;0.95;;
72939;SDS011;61094;51.154;13.570;2022-07-05T09:46:37;3.13;;;1.17;;
72939;SDS011;61094;51.154;13.570;2022-07-05T09:49:04;2.67;;;0.75;;
72939;SDS011;61094;51.154;13.570;2022-07-05T09:51:46;2.72;;;0.75;;
72939;SDS011;61094;51.154;13.570;2022-07-05T09:54:14;6.18;;;1.40;;
72939;SDS011;61094;51.154;13.570;2022-07-05T09:56:44;7.43;;;1.08;;
72939;SDS011;61094;51.154;13.570;2022-07-05T09:59:11;2.72;;;0.68;;
72939;SDS011;61094;51.154;13.570;2022-07-05T10:01:43;3.72;;;0.77;;
72939;SDS011;61094;51.154;13.570;2022-07-05T10:04:11;3.03;;;0.80;;
72939;SDS011;61094;51.154;13.570;2022-07-05T10:06:38;2.45;;;0.95;;
72939;SDS011;61094;51.154;13.570;2022-07-05T10:09:05;4.18;;;1.00;;
72939;SDS011;61094;51.154;13.570;2022-07-05T10:11:31;4.10;;;1.20;;
72939;SDS011;61094;51.154;13.570;2022-07-05T10:14:00;5.88;;;2.00;;
72939;SDS011;61094;51.154;13.570;2022-07-05T10:16:35;3.60;;;1.10;;
72939;SDS011;61094;51.154;13.570;2022-07-05T10:19:02;3.35;;;1.27;;
72939;SDS011;61094;51.154;13.570;2022-07-05T10:21:36;4.25;;;0.93;;
72939;SDS011;61094;51.154;13.570;2022-07-05T10:26:29;2.28;;;0.95;;
72939;SDS011;61094;51.154;13.570;2022-07-05T10:28:58;3.90;;;1.10;;
72939;SDS011;61094;51.154;13.570;2022-07-05T10:31:26;5.00;;;1.35;;
72939;SDS011;61094;51.154;13.570;2022-07-05T10:33:54;1.63;;;0.95;;
72939;SDS011;61094;51.154;13.570;2022-07-05T10:36:21;1.90;;;0.77;;
72939;SDS011;61094;51.154;13.570;2022-07-05T10:42:10;4.25;;;0.90;;
72939;SDS011;61094;51.154;13.570;2022-07-05T10:44:37;2.17;;;0.90;;
72939;SDS011;61094;51.154;13.570;2022-07-05T10:47:07;2.88;;;1.00;;
72939;SDS011;61094;51.154;13.570;2022-07-05T10:49:35;2.75;;;0.90;;
72939;SDS011;61094;51.154;13.570;2022-07-05T10:52:03;2.55;;;1.00;;
72939;SDS011;61094;51.154;13.570;2022-07-05T10:54:30;3.05;;;1.05;;
72939;SDS011;61094;51.154;13.570;2022-07-05T11:00:05;1.88;;;0.80;;
72939;SDS011;61094;51.154;13.570;2022-07-05T11:02:32;2.33;;;0.80;;
72939;SDS011;61094;51.154;13.570;2022-07-05T11:04:59;3.83;;;0.90;;
72939;SDS011;61094;51.154;13.570;2022-07-05T11:10:23;1.27;;;0.68;;
72939;SDS011;61094;51.154;13.570;2022-07-05T11:12:51;3.88;;;1.15;;
72939;SDS011;61094;51.154;13.570;2022-07-05T11:15:17;2.97;;;0.85;;
72939;SDS011;61094;51.154;13.570;2022-07-05T11:17:44;2.55;;;1.02;;
72939;SDS011;61094;51.154;13.570;2022-07-05T11:20:12;2.50;;;0.82;;
72939;SDS011;61094;51.154;13.570;2022-07-05T11:22:41;2.10;;;0.80;;
72939;SDS011;61094;51.154;13.570;2022-07-05T11:25:25;2.97;;;1.00;;
72939;SDS011;61094;51.154;13.570;2022-07-05T11:28:05;2.58;;;0.90;;
72939;SDS011;61094;51.154;13.570;2022-07-05T11:30:45;4.45;;;0.93;;
72939;SDS011;61094;51.154;13.570;2022-07-05T11:33:26;2.13;;;0.88;;
72939;SDS011;61094;51.154;13.570;2022-07-05T11:36:04;2.28;;;0.77;;
72939;SDS011;61094;51.154;13.570;2022-07-05T11:38:32;4.82;;;0.90;;
72939;SDS011;61094;51.154;13.570;2022-07-05T11:43:45;2.33;;;0.85;;
72939;SDS011;61094;51.154;13.570;2022-07-05T11:46:21;2.38;;;0.90;;
72939;SDS011;61094;51.154;13.570;2022-07-05T11:48:49;2.92;;;1.02;;
72939;SDS011;61094;51.154;13.570;2022-07-05T11:51:17;3.20;;;0.90;;
72939;SDS011;61094;51.154;13.570;2022-07-05T11:53:45;3.08;;;0.88;;
72939;SDS011;61094;51.154;13.570;2022-07-05T11:56:11;4.32;;;1.10;;
72939;SDS011;61094;51.154;13.570;2022-07-05T11:58:38;2.33;;;1.05;;
72939;SDS011;61094;51.154;13.570;2022-07-05T12:01:06;2.40;;;0.90;;
72939;SDS011;61094;51.154;13.570;2022-07-05T12:08:35;1.88;;;0.93;;
72939;SDS011;61094;51.154;13.570;2022-07-05T12:11:02;3.13;;;1.20;;
72939;SDS011;61094;51.154;13.570;2022-07-05T12:13:47;3.80;;;0.90;;
72939;SDS011;61094;51.154;13.570;2022-07-05T12:16:16;2.65;;;0.90;;
72939;SDS011;61094;51.154;13.570;2022-07-05T12:18:48;2.30;;;0.90;;
72939;SDS011;61094;51.154;13.570;2022-07-05T12:21:15;3.35;;;1.10;;
72939;SDS011;61094;51.154;13.570;2022-07-05T12:23:42;2.20;;;0.70;;
72939;SDS011;61094;51.154;13.570;2022-07-05T12:26:10;3.42;;;0.90;;
72939;SDS011;61094;51.154;13.570;2022-07-05T12:28:38;2.97;;;0.93;;
72939;SDS011;61094;51.154;13.570;2022-07-05T12:31:17;3.47;;;0.90;;
72939;SDS011;61094;51.154;13.570;2022-07-05T12:33:45;1.45;;;0.80;;
72939;SDS011;61094;51.154;13.570;2022-07-05T12:36:13;2.75;;;1.10;;
72939;SDS011;61094;51.154;13.570;2022-07-05T12:38:41;3.53;;;1.10;;
72939;SDS011;61094;51.154;13.570;2022-07-05T12:41:08;1.65;;;0.88;;
72939;SDS011;61094;51.154;13.570;2022-07-05T12:43:48;5.13;;;0.93;;
72939;SDS011;61094;51.154;13.570;2022-07-05T12:46:17;2.40;;;0.90;;
72939;SDS011;61094;51.154;13.570;2022-07-05T12:48:44;4.05;;;0.80;;
72939;SDS011;61094;51.154;13.570;2022-07-05T12:51:30;2.65;;;0.98;;
72939;SDS011;61094;51.154;13.570;2022-07-05T12:53:58;3.25;;;0.90;;
72939;SDS011;61094;51.154;13.570;2022-07-05T12:56:46;2.00;;;0.82;;
72939;SDS011;61094;51.154;13.570;2022-07-05T12:59:30;3.38;;;0.85;;
72939;SDS011;61094;51.154;13.570;2022-07-05T13:01:58;8.75;;;1.20;;
72939;SDS011;61094;51.154;13.570;2022-07-05T13:04:25;3.50;;;1.10;;
72939;SDS011;61094;51.154;13.570;2022-07-05T13:06:53;3.97;;;0.90;;
72939;SDS011;61094;51.154;13.570;2022-07-05T13:09:30;3.97;;;1.02;;
72939;SDS011;61094;51.154;13.570;2022-07-05T13:12:09;4.43;;;0.93;;
72939;SDS011;61094;51.154;13.570;2022-07-05T13:14:37;2.33;;;0.90;;
72939;SDS011;61094;51.154;13.570;2022-07-05T13:17:06;3.47;;;0.98;;
72939;SDS011;61094;51.154;13.570;2022-07-05T13:19:34;3.25;;;1.00;;
72939;SDS011;61094;51.154;13.570;2022-07-05T13:22:01;3.75;;;1.10;;
72939;SDS011;61094;51.154;13.570;2022-07-05T13:24:28;2.65;;;1.10;;
72939;SDS011;61094;51.154;13.570;2022-07-05T13:26:55;4.90;;;1.08;;
72939;SDS011;61094;51.154;13.570;2022-07-05T13:29:22;1.50;;;0.80;;
72939;SDS011;61094;51.154;13.570;2022-07-05T13:31:49;4.45;;;0.98;;
72939;SDS011;61094;51.154;13.570;2022-07-05T13:34:17;2.67;;;1.05;;
72939;SDS011;61094;51.154;13.570;2022-07-05T13:36:44;6.82;;;1.77;;
72939;SDS011;61094;51.154;13.570;2022-07-05T13:39:11;2.80;;;1.00;;
72939;SDS011;61094;51.154;13.570;2022-07-05T13:41:38;6.28;;;1.10;;
72939;SDS011;61094;51.154;13.570;2022-07-05T13:44:04;5.55;;;1.05;;
72939;SDS011;61094;51.154;13.570;2022-07-05T13:46:31;2.10;;;0.82;;
72939;SDS011;61094;51.154;13.570;2022-07-05T13:48:58;3.83;;;1.30;;
72939;SDS011;61094;51.154;13.570;2022-07-05T13:51:26;2.17;;;0.77;;
72939;SDS011;61094;51.154;13.570;2022-07-05T13:53:52;2.53;;;0.98;;
72939;SDS011;61094;51.154;13.570;2022-07-05T13:56:19;2.92;;;0.90;;
72939;SDS011;61094;51.154;13.570;2022-07-05T13:58:46;4.60;;;1.10;;
72939;SDS011;61094;51.154;13.570;2022-07-05T14:01:13;2.58;;;0.90;;
72939;SDS011;61094;51.154;13.570;2022-07-05T14:03:39;5.03;;;1.27;;
72939;SDS011;61094;51.154;13.570;2022-07-05T14:06:06;2.97;;;1.10;;
72939;SDS011;61094;51.154;13.570;2022-07-05T14:08:34;3.38;;;1.10;;
72939;SDS011;61094;51.154;13.570;2022-07-05T14:11:01;3.90;;;1.20;;
72939;SDS011;61094;51.154;13.570;2022-07-05T14:13:28;2.97;;;0.90;;
72939;SDS011;61094;51.154;13.570;2022-07-05T14:15:55;5.32;;;1.20;;
72939;SDS011;61094;51.154;13.570;2022-07-05T14:18:21;3.33;;;1.00;;
72939;SDS011;61094;51.154;13.570;2022-07-05T14:20:50;3.63;;;1.00;;
72939;SDS011;61094;51.154;13.570;2022-07-05T14:23:16;3.42;;;1.77;;
72939;SDS011;61094;51.154;13.570;2022-07-05T14:25:44;2.72;;;0.90;;
72939;SDS011;61094;51.154;13.570;2022-07-05T14:28:11;3.00;;;0.90;;
72939;SDS011;61094;51.154;13.570;2022-07-05T14:30:38;3.15;;;1.00;;
72939;SDS011;61094;51.154;13.570;2022-07-05T14:33:07;2.40;;;1.30;;
72939;SDS011;61094;51.154;13.570;2022-07-05T14:35:34;3.40;;;1.00;;
72939;SDS011;61094;51.154;13.570;2022-07-05T14:38:01;4.15;;;1.42;;
72939;SDS011;61094;51.154;13.570;2022-07-05T14:40:28;1.85;;;0.68;;
72939;SDS011;61094;51.154;13.570;2022-07-05T14:42:57;9.13;;;1.63;;
72939;SDS011;61094;51.154;13.570;2022-07-05T14:45:25;5.10;;;1.58;;
72939;SDS011;61094;51.154;13.570;2022-07-05T14:47:51;3.97;;;0.90;;
72939;SDS011;61094;51.154;13.570;2022-07-05T14:50:18;2.90;;;0.90;;
72939;SDS011;61094;51.154;13.570;2022-07-05T14:52:46;4.30;;;1.20;;
72939;SDS011;61094;51.154;13.570;2022-07-05T14:55:14;4.50;;;1.10;;
72939;SDS011;61094;51.154;13.570;2022-07-05T14:57:41;3.08;;;0.95;;
72939;SDS011;61094;51.154;13.570;2022-07-05T15:00:10;4.10;;;1.40;;